Hlavní strana
METAR-TAF:

METAR-TAF

Letiště :

Mackall Army Airfield

Camp Mackall, Severní Karolína, Spojené státy americké

zeměpisná šířka: 35-02N, zeměpisná délka: 079-30W, výška: 115 m

Aktuální stav počasí

Zpráva byla vytvořena před 39 minutami, v 10:20 UTC
Východní vítr 4 kt
Teplota 6°C
Vlhkost vzduchu 93%
Tlak 1021 hPa
Viditelnost: 12.9 km
Oblačno až skoro zataženo ve výšce 700 ft
Oblačno až skoro zataženo ve výšce 4400 ft
Zataženo ve výšce 4900 ft
slabý déšť

METAR: KHFF 241020Z AUTO 08004KT 8SM -RA BKN007 BKN044 OVC049 06/05 A3016 RMK AO2 RAE04RAB05E06RAB07E08RAB09E10RAB11E12RAB13E14RAB15E16RAB17E18 RAB19 SLP230 PWINO $

Čas: 05:59 (10:59 UTC)


TAF: chybějící

Stav a předpovědi počasí z více než 4 000 letišť (zprávy METAR a TAF).

Červené a žluté tečky na mapě představují dostupné meteorologické stanice.

Když kurzor umístíte na tečku, zobrazí se název stanice.

Pak kliknutím zobrazíte stav a předpověď počasí.

Chcete-li změnit mapu, kliknutím na zelené tlačítko se znaménkem +mapu přiblížíte, kliknutím na zelené tlačítko se znaménkem – mapu oddálíte a kliknutím na zelené šipky přejdete na sousední mapy.


METAR-TAF: